Terminal Aerodrome Forecast
Issued by NWS Duluth, MN

Home | Current Version | Previous Version | Text Only | Print | Product List | Glossary On
Versions: 1 2 3 4 5 6 7 8 9 10 11 12 13 14 15 16 17 18 19 20 21 22 23 24
633
FTUS43 KDLH 210958 AAB
TAFDLH
TAF AMD
KDLH 210958Z 2110/2206 32008KT 6SM -SHRA SCT015 OVC035
     FM211100 30008KT P6SM VCSH SCT035
     FM211400 19006KT P6SM SCT025 BKN150
     FM211800 28011KT P6SM SCT050
     FM220000 29004KT P6SM SCT080=

USA.gov is the U.S. government's official web portal to all federal, state and local government web resources and services.